EW7554 Weather Reports


Display with metric or nautical units.
time (UTC)temp
F
wind
direction
speed
MPH
gust
MPH
rain 1hr
in
rain 24hr
in
rain mn
in
humidity
%
barometer
mb
20190722203053 77 314 8.0 12.0 0.00 0.00 0.00 41 1022.5
20190722201623 76 323 3.0 11.0 0.00 0.00 0.00 46 1022.7
20190722200055 76 333 5.0 11.0 0.00 0.00 0.00 43 1022.8
20190722194658 75 349 2.0 8.0 0.00 0.00 0.00 47 1022.9
20190722193055 76 355 4.0 9.0 0.00 0.00 0.00 45 1023.0
20190722191550 75 355 5.0 13.0 0.00 0.00 0.00 45 1023.1
20190722190130 75 350 3.0 11.0 0.00 0.00 0.00 42 1023.1
20190722184558 75 11 3.0 11.0 0.00 0.00 0.00 44 1023.2
20190722183133 75 330 4.0 9.0 0.00 0.00 0.00 45 1023.2
20190722181608 74 313 2.0 10.0 0.00 0.00 0.00 50 1023.5
20190722180056 73 325 6.0 9.0 0.00 0.00 0.00 48 1023.7
20190722174619 73 5 4.0 9.0 0.00 0.00 0.00 50 1023.5
20190722173124 73 340 3.0 10.0 0.00 0.00 0.00 49 1023.6
20190722171537 73 360 4.0 14.0 0.00 0.00 0.00 48 1023.6
20190722170053 73 26 4.0 11.0 0.00 0.00 0.00 50 1023.7
20190722164636 73 360 3.0 10.0 0.00 0.00 0.00 47 1023.6
20190722163027 72 351 2.0 12.0 0.00 0.00 0.00 48 1023.5
20190722161552 72 5 4.0 9.0 0.00 0.00 0.00 46 1023.6
20190722160021 72 302 3.0 9.0 0.00 0.00 0.00 49 1023.6
20190722154543 71 316 4.0 9.0 0.00 0.00 0.00 49 1023.6
20190722153006 70 5 4.0 11.0 0.00 0.00 0.00 51 1023.6
20190722150210 69 360 3.0 9.0 0.00 0.00 0.00 53 1023.6
20190722144727 69 315 2.0 8.0 0.00 0.00 0.00 57 1023.6
20190722143151 68 11 4.0 10.0 0.00 0.00 0.00 57 1023.6
20190722141715 67 326 1.0 5.0 0.00 0.00 0.00 61 1023.6
20190722140212 66 15 4.0 8.0 0.00 0.00 0.00 60 1023.6
20190722134621 65 360 3.0 7.0 0.00 0.00 0.00 64 1023.5
20190722133108 64 26 2.0 8.0 0.00 0.00 0.00 67 1023.5
20190722131651 63 15 1.0 6.0 0.00 0.00 0.00 69 1023.4
20190722130101 62 314 3.0 8.0 0.00 0.00 0.00 70 1023.3
20190722124547 61 344 4.0 12.0 0.00 0.00 0.00 72 1023.2
20190722123038 61 342 3.0 9.0 0.00 0.00 0.00 73 1023.1
20190722121521 60 293 3.0 9.0 0.00 0.00 0.00 76 1022.9
20190722120038 59 330 3.0 5.0 0.00 0.00 0.00 76 1022.8
20190722114511 59 336 2.0 6.0 0.00 0.00 0.00 77 1022.6
20190722113017 59 9 2.0 6.0 0.00 0.00 0.00 77 1022.5
20190722111503 59 355 2.0 6.0 0.00 0.00 0.00 77 1022.4
20190722110200 59 19 2.0 6.0 0.00 0.00 0.00 77 1022.2
20190722104644 59 307 2.0 5.0 0.00 0.00 0.00 77 1022.0
20190722103223 60 327 2.0 5.0 0.00 0.00 0.00 77 1021.9
20190722101648 60 355 2.0 4.0 0.00 0.00 0.00 77 1021.7
20190722100104 60 330 2.0 5.0 0.00 0.00 0.00 76 1021.5
20190722094618 61 5 2.0 5.0 0.00 0.00 0.00 76 1021.4
20190722093125 61 319 2.0 6.0 0.00 0.00 0.00 75 1021.4
20190722091654 61 333 2.0 7.0 0.00 0.00 0.00 74 1021.3
20190722090123 62 343 2.0 6.0 0.00 0.00 0.00 73 1021.2
20190722084557 62 348 2.0 5.0 0.00 0.00 0.00 73 1021.1
20190722083126 62 310 2.0 5.0 0.00 0.00 0.00 72 1021.0
20190722081608 63 350 1.0 5.0 0.00 0.00 0.00 72 1020.8
20190722080145 63 325 2.0 4.0 0.00 0.00 0.00 71 1020.7
20190722074538 64 355 3.0 8.0 0.00 0.00 0.00 71 1020.7
20190722073105 64 339 3.0 8.0 0.00 0.00 0.00 71 1020.7
20190722071555 65 355 3.0 7.0 0.00 0.00 0.00 70 1020.6
20190722070031 65 30 3.0 8.0 0.00 0.00 0.00 69 1020.6
20190722064537 66 17 2.0 6.0 0.00 0.00 0.00 69 1020.5
20190722063058 66 355 3.0 8.0 0.00 0.00 0.00 69 1020.4
20190722061526 67 311 2.0 12.0 0.00 0.00 0.00 69 1020.3
20190722060029 67 360 4.0 10.0 0.00 0.00 0.00 69 1020.2
20190722054543 67 323 3.0 9.0 0.00 0.00 0.00 69 1020.1
20190722053041 68 333 4.0 9.0 0.00 0.00 0.00 70 1020.0
20190722051529 68 348 4.0 9.0 0.00 0.00 0.00 68 1019.8
20190722050011 68 347 3.0 8.0 0.00 0.00 0.00 67 1019.7
20190722044510 69 351 3.0 10.0 0.00 0.00 0.00 67 1019.6
20190722043005 69 328 3.0 8.0 0.00 0.00 0.00 67 1019.6
20190722041508 69 349 3.0 10.0 0.00 0.00 0.00 66 1019.4
20190722040007 70 355 4.0 8.0 0.00 0.00 0.00 65 1019.4
20190722034502 70 5 3.0 10.0 0.00 0.00 0.00 65 1019.5
20190722033001 71 355 2.0 9.0 0.00 0.00 0.00 65 1019.3
20190722031502 71 344 1.0 6.0 0.00 0.00 0.00 63 1019.4
20190722030118 71 355 2.0 8.0 0.00 0.00 0.00 61 1019.3
20190722024825 71 14 3.0 6.0 0.00 0.00 0.00 60 1019.2
20190722023134 72 326 2.0 5.0 0.00 0.00 0.00 61 1019.1
20190722021636 72 17 2.0 6.0 0.00 0.00 0.00 62 1019.0
20190722020213 73 340 1.0 5.0 0.00 0.00 0.00 60 1018.9
20190722014744 73 9 3.0 9.0 0.00 0.00 0.00 59 1018.8
20190722013143 74 347 1.0 4.0 0.00 0.00 0.00 61 1018.7
20190722011640 75 321 2.0 4.0 0.00 0.00 0.00 60 1018.6
20190722010206 75 315 1.0 4.0 0.00 0.00 0.00 58 1018.4
20190722004711 76 296 1.0 6.0 0.00 0.00 0.00 57 1018.4
20190722003140 76 302 3.0 8.0 0.00 0.00 0.00 54 1018.6
20190722001633 75 322 3.0 6.0 0.00 0.00 0.00 54 1018.6
20190722000157 76 304 4.0 10.0 0.00 0.00 0.00 53 1018.3
20190721234640 78 11 3.0 9.0 0.00 0.00 0.00 51 1018.1
20190721233144 78 347 2.0 9.0 0.00 0.00 0.00 52 1018.3
20190721231656 78 5 4.0 10.0 0.00 0.00 0.00 52 1018.2
20190721230155 78 336 2.0 11.0 0.00 0.00 0.00 51 1017.9
20190721224649 77 316 9.0 13.0 0.00 0.00 0.00 47 1017.8
20190721223127 79 342 3.0 10.0 0.00 0.00 0.00 50 1017.7
20190721221603 78 11 4.0 9.0 0.00 0.00 0.00 47 1017.7
20190721220153 78 317 3.0 10.0 0.00 0.00 0.00 47 1017.6
20190721214705 79 326 5.0 12.0 0.00 0.00 0.00 46 1017.7
20190721213143 79 309 3.0 10.0 0.00 0.00 0.00 47 1017.6
20190721211704 80 316 5.0 14.0 0.00 0.00 0.00 46 1017.6
20190721210111 79 296 7.0 13.0 0.00 0.00 0.00 47 1017.8
20190721204640 78 324 4.0 9.0 0.00 0.00 0.00 51 1017.8